Time;durP1;ratioP1;P1;durP2;ratioP2;P2;SDS_P1;SDS_P2;PMS_P1;PMS_P2;Temp;Humidity;BMP_temperature;BMP_pressure;BME280_temperature;BME280_humidity;BME280_pressure;Samples;Min_cycle;Max_cycle;Signal;HPM_P1;HPM_P2
2023/09/21 00:00:19;;;;;;;28.00;9.70;;;19.40;99.90;;;19.79;73.23;95164.75;5020129;28;20477;-61
2023/09/21 00:02:50;;;;;;;24.33;9.03;;;19.40;99.90;;;19.79;73.61;95157.56;5019223;28;20463;-61
2023/09/21 00:05:21;;;;;;;20.07;8.60;;;19.40;99.90;;;19.79;73.74;95162.91;5021557;28;20587;-62
2023/09/21 00:07:49;;;;;;;28.13;10.30;;;19.40;99.90;;;19.80;73.49;95166.38;5018686;28;20531;-61
2023/09/21 00:10:16;;;;;;;19.73;8.83;;;19.40;99.90;;;19.81;73.77;95168.88;5021497;28;20477;-70
2023/09/21 00:12:43;;;;;;;19.83;10.30;;;19.40;99.90;;;19.83;73.78;95171.34;5018525;28;20958;-70
2023/09/21 00:15:20;;;;;;;26.23;10.10;;;19.40;99.90;;;19.84;73.96;95165.00;5020904;28;20460;-62
2023/09/21 00:17:51;;;;;;;14.03;9.10;;;19.40;99.90;;;19.85;74.26;95169.34;5014677;28;20445;-69
2023/09/21 00:20:23;;;;;;;21.17;9.70;;;19.40;99.90;;;19.85;73.62;95178.16;5021271;28;21105;-61
2023/09/21 00:22:50;;;;;;;21.47;8.87;;;19.40;99.90;;;19.83;73.51;95195.38;5018365;28;20449;-60
2023/09/21 00:25:17;;;;;;;8.47;6.60;;;19.40;99.90;;;19.80;73.72;95187.75;5018504;28;20492;-70
2023/09/21 00:27:45;;;;;;;19.60;8.60;;;19.40;99.90;;;19.73;73.36;95192.97;5021119;28;20786;-60
2023/09/21 00:30:13;;;;;;;23.10;9.33;;;19.30;99.90;;;19.67;73.02;95194.59;5018221;28;20853;-72
2023/09/21 00:32:41;;;;;;;20.13;9.07;;;19.30;99.90;;;19.64;73.34;95205.63;5021877;28;20499;-70
2023/09/21 00:35:10;;;;;;;24.10;8.80;;;19.20;99.90;;;19.62;73.71;95201.50;5018499;28;20863;-71
2023/09/21 00:37:39;;;;;;;23.17;9.50;;;19.20;99.90;;;19.59;73.75;95202.69;5022599;28;20464;-71
2023/09/21 00:40:22;;;;;;;19.60;8.03;;;19.20;99.90;;;19.56;73.69;95197.72;5018533;28;20485;-71
2023/09/21 00:42:51;;;;;;;27.63;9.40;;;19.10;99.90;;;19.57;73.37;95194.03;5018860;28;20445;-65
2023/09/21 00:45:20;;;;;;;18.83;9.67;;;19.10;99.90;;;19.59;73.42;95202.69;5020325;28;20481;-69
2023/09/21 00:47:50;;;;;;;22.87;10.47;;;19.20;99.90;;;19.61;73.32;95200.66;5019039;28;20464;-70
2023/09/21 00:50:20;;;;;;;14.33;9.53;;;19.20;99.90;;;19.63;73.71;95198.63;5020699;28;20551;-70
2023/09/21 00:52:51;;;;;;;15.83;8.53;;;19.20;99.90;;;19.64;73.87;95189.63;5018862;28;20516;-72
2023/09/21 00:55:23;;;;;;;14.83;8.90;;;19.20;99.90;;;19.67;73.42;95193.75;5021219;28;20483;-61
2023/09/21 00:57:55;;;;;;;12.50;8.77;;;19.20;99.90;;;19.65;72.93;95185.91;5014232;28;20834;-64
2023/09/21 01:00:26;;;;;;;17.53;8.90;;;19.20;99.90;;;19.66;73.17;95176.09;5014851;28;20477;-67
2023/09/21 01:02:54;;;;;;;27.40;8.90;;;19.20;99.90;;;19.64;73.56;95168.28;5021040;28;21003;-62
2023/09/21 01:05:22;;;;;;;17.67;8.60;;;19.20;99.90;;;19.63;73.21;95163.94;5017943;28;20986;-68
2023/09/21 01:07:52;;;;;;;32.40;12.27;;;19.20;99.90;;;19.61;73.35;95173.13;5021233;28;20452;-66
2023/09/21 01:10:21;;;;;;;16.23;9.13;;;19.20;99.90;;;19.59;73.95;95181.34;5018393;28;20477;-70
2023/09/21 01:12:51;;;;;;;24.00;9.30;;;19.20;99.90;;;19.60;74.27;95176.84;5021329;28;20461;-61
2023/09/21 01:15:20;;;;;;;19.07;10.97;;;19.20;99.90;;;19.61;74.04;95173.13;5019147;28;20470;-60
2023/09/21 01:17:48;;;;;;;11.50;8.37;;;19.20;99.90;;;19.63;74.42;95163.94;5020361;28;21063;-72
2023/09/21 01:20:23;;;;;;;24.03;9.20;;;19.20;99.90;;;19.64;73.95;95162.09;5018591;28;20484;-70
2023/09/21 01:23:07;;;;;;;29.20;10.47;;;19.20;99.90;;;19.62;73.96;95148.94;5019644;28;20444;-71
2023/09/21 01:25:39;;;;;;;19.07;9.40;;;19.20;99.90;;;19.61;74.00;95155.31;5014387;28;20531;-60
2023/09/21 01:28:08;;;;;;;23.57;10.10;;;19.20;99.90;;;19.61;73.71;95157.13;5014723;28;20457;-60
2023/09/21 01:30:36;;;;;;;14.43;8.90;;;19.20;99.90;;;19.58;73.95;95150.34;5020542;28;20481;-69
2023/09/21 01:33:07;;;;;;;16.23;8.93;;;19.20;99.90;;;19.53;74.06;95150.06;5020586;28;20446;-73
2023/09/21 01:35:34;;;;;;;22.30;10.23;;;19.10;99.90;;;19.49;74.41;95141.63;5024039;28;20468;-60
2023/09/21 01:38:02;;;;;;;19.30;10.10;;;19.10;99.90;;;19.46;74.40;95135.84;5021804;28;20533;-61
2023/09/21 01:40:30;;;;;;;23.20;9.20;;;19.10;99.90;;;19.43;74.10;95134.38;5024159;28;20464;-69
2023/09/21 01:42:59;;;;;;;21.20;9.80;;;19.00;99.90;;;19.44;75.11;95140.53;5021212;28;20461;-70
2023/09/21 01:45:26;;;;;;;14.90;8.27;;;19.00;99.90;;;19.45;74.41;95131.53;5023944;28;20468;-62
2023/09/21 01:47:54;;;;;;;19.00;9.63;;;19.00;99.90;;;19.44;74.69;95125.38;5022274;28;20515;-59
2023/09/21 01:50:21;;;;;;;23.93;8.47;;;19.00;99.90;;;19.43;75.24;95117.56;5024250;28;20519;-69
2023/09/21 01:52:50;;;;;;;27.33;9.57;;;19.00;99.90;;;19.43;74.57;95117.56;5021392;28;20453;-69
2023/09/21 01:55:18;;;;;;;22.43;10.00;;;19.00;99.90;;;19.42;75.16;95119.38;5024052;28;20589;-61
2023/09/21 01:57:46;;;;;;;21.47;10.83;;;19.00;99.90;;;19.42;74.98;95114.03;5020700;28;20511;-62
2023/09/21 02:00:25;;;;;;;31.13;10.07;;;19.00;99.90;;;19.41;75.33;95109.72;5024387;28;20473;-61
2023/09/21 02:02:52;;;;;;;14.37;9.63;;;19.00;99.90;;;19.41;75.25;95111.56;5020182;28;20481;-70
2023/09/21 02:05:20;;;;;;;21.03;10.33;;;19.00;99.90;;;19.38;74.74;95098.59;5022927;28;21011;-61
2023/09/21 02:07:47;;;;;;;21.33;10.30;;;19.00;99.90;;;19.38;74.96;95095.94;5021340;28;20993;-60
2023/09/21 02:10:17;;;;;;;19.10;9.33;;;19.00;99.90;;;19.35;75.62;95092.63;5023082;28;20543;-69
2023/09/21 02:12:55;;;;;;;29.13;10.20;;;19.00;99.90;;;19.34;75.47;95087.50;5021555;28;20543;-70
2023/09/21 02:15:24;;;;;;;22.20;9.37;;;18.90;99.90;;;19.32;75.63;95087.69;5013928;28;20497;-61
2023/09/21 02:17:54;;;;;;;26.17;9.83;;;18.90;99.90;;;19.31;75.61;95080.69;5021717;28;20531;-60
2023/09/21 02:20:21;;;;;;;21.10;9.63;;;18.90;99.90;;;19.30;75.40;95086.19;5019923;28;21031;-69
2023/09/21 02:22:50;;;;;;;24.23;10.77;;;18.90;99.90;;;19.28;75.82;95082.91;5020590;28;20469;-69
2023/09/21 02:25:17;;;;;;;25.23;10.27;;;18.90;99.90;;;19.26;76.32;95096.44;5016478;28;20478;-63
2023/09/21 02:27:47;;;;;;;19.20;10.60;;;18.90;99.90;;;19.28;75.97;95101.56;5019309;28;20529;-71
2023/09/21 02:30:16;;;;;;;20.80;9.87;;;18.90;99.90;;;19.29;76.59;95111.25;5019698;28;20493;-60
2023/09/21 02:32:48;;;;;;;22.63;9.80;;;18.90;99.90;;;19.32;76.64;95105.53;5014894;28;20504;-60
2023/09/21 02:35:16;;;;;;;11.90;9.37;;;18.90;99.90;;;19.36;76.73;95101.44;5015312;28;20500;-61
2023/09/21 02:37:46;;;;;;;20.03;10.60;;;19.00;99.90;;;19.39;76.25;95100.25;5020501;28;20460;-60
2023/09/21 02:40:15;;;;;;;32.23;10.43;;;18.90;99.90;;;19.40;76.36;95105.41;5018421;28;20833;-60
2023/09/21 02:42:44;;;;;;;20.33;10.70;;;19.00;99.90;;;19.42;76.44;95107.88;5019492;28;20544;-69
2023/09/21 02:45:12;;;;;;;18.27;10.87;;;19.00;99.90;;;19.42;75.98;95106.03;5014237;28;21451;-69
2023/09/21 02:47:41;;;;;;;26.83;12.20;;;19.00;99.90;;;19.43;75.90;95112.22;5017207;28;20492;-70
2023/09/21 02:50:22;;;;;;;24.20;11.07;;;19.00;99.90;;;19.39;76.04;95110.94;5022806;28;20580;-60
2023/09/21 02:52:54;;;;;;;21.27;12.10;;;19.00;99.90;;;19.38;76.14;95111.94;5018776;28;20540;-61
2023/09/21 02:55:22;;;;;;;15.07;10.53;;;18.90;99.90;;;19.37;75.64;95108.44;5018360;28;20545;-61
2023/09/21 02:57:56;;;;;;;21.93;12.00;;;19.00;99.90;;;19.37;75.93;95111.13;5018297;28;20496;-62
2023/09/21 03:00:29;;;;;;;17.50;10.90;;;19.00;99.90;;;19.37;76.11;95110.31;5021036;28;20484;-68
2023/09/21 03:02:56;;;;;;;17.33;10.73;;;18.90;99.90;;;19.38;75.99;95115.44;5022471;28;20452;-69
2023/09/21 03:05:27;;;;;;;22.97;11.40;;;18.90;99.90;;;19.39;76.39;95108.25;5012938;28;21036;-60
2023/09/21 03:07:54;;;;;;;18.60;10.87;;;18.90;99.90;;;19.41;76.34;95114.22;5014371;28;20485;-71
2023/09/21 03:10:22;;;;;;;19.10;11.30;;;19.00;99.90;;;19.40;76.63;95117.94;5015850;28;20480;-61
2023/09/21 03:12:51;;;;;;;15.80;10.23;;;19.00;99.90;;;19.39;76.74;95116.25;5019575;28;20837;-71
2023/09/21 03:15:19;;;;;;;29.27;12.67;;;19.00;99.90;;;19.38;76.56;95117.28;5022173;28;20465;-70
2023/09/21 03:17:47;;;;;;;16.70;10.87;;;19.00;99.90;;;19.38;76.37;95123.44;5020079;28;20966;-60
2023/09/21 03:20:23;;;;;;;22.93;11.57;;;19.00;99.90;;;19.37;76.84;95118.31;5019673;28;20469;-69
2023/09/21 03:22:53;;;;;;;22.00;10.40;;;18.90;99.90;;;19.35;76.21;95121.16;5017967;28;20464;-68
2023/09/21 03:25:25;;;;;;;21.43;10.77;;;18.90;99.90;;;19.35;76.72;95126.50;5015955;28;20500;-60
2023/09/21 03:27:53;;;;;;;24.23;12.10;;;19.00;99.90;;;19.34;76.72;95120.31;5018026;28;20504;-70
2023/09/21 03:30:23;;;;;;;17.20;10.40;;;19.00;99.90;;;19.34;76.73;95120.31;5021129;28;20484;-61
2023/09/21 03:32:50;;;;;;;19.80;10.80;;;19.00;99.90;;;19.33;76.83;95121.34;5017491;28;20463;-71
2023/09/21 03:35:18;;;;;;;26.30;11.70;;;19.00;99.90;;;19.32;76.60;95127.69;5014094;28;20539;-59
2023/09/21 03:37:47;;;;;;;21.30;9.90;;;18.90;99.90;;;19.30;76.81;95124.38;5019331;28;20450;-67
2023/09/21 03:40:17;;;;;;;26.70;10.70;;;18.90;99.90;;;19.27;76.68;95129.25;5016692;28;20509;-69
2023/09/21 03:42:44;;;;;;;22.53;11.73;;;18.90;99.90;;;19.21;77.19;95120.19;5020537;28;20453;-69
2023/09/21 03:45:15;;;;;;;25.83;12.60;;;18.90;99.90;;;19.21;77.05;95130.84;5016190;28;20826;-60
2023/09/21 03:47:43;;;;;;;23.93;11.30;;;18.80;99.90;;;19.16;76.55;95128.75;5015533;28;20554;-60
2023/09/21 03:50:14;;;;;;;24.27;8.27;;;18.80;99.90;;;19.22;77.15;95126.34;5017674;28;20654;-69
2023/09/21 03:52:41;;;;;;;19.97;9.10;;;18.80;99.90;;;19.26;76.94;95125.78;5018100;28;20441;-63
2023/09/21 03:55:15;;;;;;;18.83;10.07;;;18.80;99.90;;;19.32;76.61;95119.69;5013404;28;20511;-71
2023/09/21 03:57:46;;;;;;;22.83;10.40;;;18.80;99.90;;;19.37;76.17;95120.97;5017064;28;20445;-70
2023/09/21 04:00:29;;;;;;;24.33;11.50;;;18.90;99.90;;;19.39;76.26;95118.94;5015686;28;20486;-58
2023/09/21 04:02:57;;;;;;;19.13;10.60;;;19.00;99.90;;;19.36;76.28;95114.78;5010793;28;20818;-58
2023/09/21 04:05:26;;;;;;;19.30;10.07;;;19.00;99.90;;;19.37;76.01;95112.97;5009795;28;20556;-58
2023/09/21 04:07:53;;;;;;;28.27;11.73;;;19.00;99.90;;;19.34;76.28;95114.97;5010272;28;20514;-67
2023/09/21 04:10:20;;;;;;;19.47;10.30;;;18.90;99.90;;;19.31;76.08;95115.34;5007134;28;20634;-59
2023/09/21 04:12:54;;;;;;;15.87;10.60;;;18.90;99.90;;;19.29;75.91;95112.06;5003889;28;20876;-66
2023/09/21 04:15:22;;;;;;;20.33;11.30;;;18.90;99.90;;;19.27;76.05;95119.44;5015117;28;20485;-66
2023/09/21 04:17:49;;;;;;;22.53;10.73;;;18.90;99.90;;;19.26;75.74;95115.09;5019743;28;20965;-66
2023/09/21 04:20:18;;;;;;;18.40;10.63;;;18.90;99.90;;;19.27;75.76;95122.09;5018092;28;21021;-65
2023/09/21 04:22:47;;;;;;;18.07;11.73;;;18.80;99.90;;;19.27;75.61;95113.25;5012552;28;20532;-68
2023/09/21 04:25:16;;;;;;;22.57;11.70;;;18.90;99.90;;;19.28;75.89;95128.25;4999453;28;20477;-65
2023/09/21 04:27:44;;;;;;;22.67;10.13;;;18.90;99.90;;;19.28;76.24;95125.59;5008325;28;21001;-65
2023/09/21 04:30:15;;;;;;;23.60;10.90;;;18.80;99.90;;;19.31;76.34;95130.53;5011129;28;20466;-60
2023/09/21 04:32:43;;;;;;;19.87;11.17;;;18.90;99.90;;;19.33;76.03;95118.69;5012152;28;20978;-67
2023/09/21 04:35:10;;;;;;;28.70;11.17;;;18.90;99.90;;;19.37;76.15;95126.31;5011677;28;20555;-60
2023/09/21 04:37:38;;;;;;;32.47;11.10;;;19.00;99.90;;;19.40;75.75;95109.94;5015511;28;20461;-60
2023/09/21 04:40:09;;;;;;;27.60;10.87;;;18.90;99.90;;;19.43;75.79;95120.22;5009864;28;20619;-60
2023/09/21 04:42:38;;;;;;;17.07;9.70;;;19.00;99.90;;;19.47;76.16;95116.13;5015148;28;20559;-61
2023/09/21 04:45:09;;;;;;;17.50;10.40;;;19.10;99.90;;;19.49;75.53;95109.59;5010787;28;20493;-66
2023/09/21 04:47:38;;;;;;;23.53;11.70;;;19.10;99.90;;;19.51;75.45;95118.25;5013273;28;20531;-61
2023/09/21 04:50:06;;;;;;;20.07;11.00;;;19.10;99.90;;;19.54;75.38;95125.06;5013303;28;20489;-59
2023/09/21 04:52:34;;;;;;;35.47;11.57;;;19.10;99.90;;;19.56;75.28;95127.53;5017762;28;20958;-63
2023/09/21 04:55:04;;;;;;;22.13;11.33;;;19.10;99.90;;;19.56;75.45;95125.69;5019643;28;20478;-64
2023/09/21 04:57:31;;;;;;;22.40;11.33;;;19.20;99.90;;;19.59;75.70;95130.63;5014273;28;20875;-60
2023/09/21 04:59:59;;;;;;;24.03;11.60;;;19.20;99.90;;;19.63;75.74;95131.91;5010808;28;20737;-60
2023/09/21 05:02:27;;;;;;;22.13;12.33;;;19.20;99.90;;;19.66;75.42;95139.53;5010665;28;20462;-66
2023/09/21 05:04:55;;;;;;;22.00;11.77;;;19.20;99.90;;;19.68;75.39;95126.84;5014141;28;20492;-60
2023/09/21 05:07:22;;;;;;;25.60;12.90;;;19.30;99.90;;;19.71;75.76;95134.47;5020494;28;20481;-61
2023/09/21 05:09:50;;;;;;;29.47;12.73;;;19.30;99.90;;;19.73;75.67;95131.59;5020541;28;20477;-68
2023/09/21 05:12:18;;;;;;;23.67;11.80;;;19.30;99.90;;;19.77;75.50;95138.25;5018474;28;20462;-68
2023/09/21 05:14:46;;;;;;;25.97;14.10;;;19.30;99.90;;;19.77;75.70;95124.06;5025304;28;20503;-69
2023/09/21 05:17:13;;;;;;;20.90;11.30;;;19.40;99.90;;;19.82;75.37;95130.50;5021115;28;20532;-68
2023/09/21 05:19:41;;;;;;;39.73;11.20;;;19.40;99.90;;;19.88;75.40;95132.41;5021036;28;20547;-59
2023/09/21 05:22:10;;;;;;;24.53;12.07;;;19.50;99.90;;;19.92;74.89;95132.00;5021208;28;20520;-61
2023/09/21 05:24:37;;;;;;;27.67;12.83;;;19.50;99.90;;;19.97;75.33;95134.91;5024456;28;20556;-60
2023/09/21 05:27:05;;;;;;;27.73;11.77;;;19.50;99.90;;;20.00;75.52;95135.38;5025816;28;20473;-68
2023/09/21 05:29:32;;;;;;;19.17;11.37;;;19.60;99.90;;;20.04;74.73;95131.28;5023676;28;20511;-69
2023/09/21 05:31:59;;;;;;;40.47;11.80;;;19.60;99.90;;;20.08;74.77;95121.06;5017900;28;20453;-60
2023/09/21 05:34:29;;;;;;;25.90;12.10;;;19.60;99.90;;;20.11;74.75;95120.69;5017041;28;20474;-69
2023/09/21 05:36:56;;;;;;;23.93;12.87;;;19.70;99.90;;;20.15;74.39;95111.25;5015517;28;20457;-60
2023/09/21 05:39:25;;;;;;;25.37;12.90;;;19.70;99.90;;;20.22;74.49;95124.69;5017009;28;20480;-59
2023/09/21 05:41:52;;;;;;;19.90;11.30;;;19.80;99.90;;;20.28;74.24;95123.91;5016812;28;20552;-59
2023/09/21 05:44:21;;;;;;;18.00;11.83;;;19.80;99.90;;;20.35;74.13;95121.28;5024347;28;20552;-60
2023/09/21 05:46:49;;;;;;;35.47;11.10;;;19.90;99.90;;;20.41;74.12;95121.31;5016780;28;20458;-67
2023/09/21 05:49:22;;;;;;;18.27;11.17;;;19.90;99.90;;;20.48;74.02;95124.06;5023899;28;20499;-59
2023/09/21 05:51:52;;;;;;;17.53;12.30;;;20.00;99.90;;;20.56;73.61;95128.41;5017163;28;20854;-59
2023/09/21 05:54:23;;;;;;;23.03;11.17;;;20.10;99.90;;;20.61;73.52;95125.97;5018022;28;20481;-59
2023/09/21 05:56:52;;;;;;;25.13;12.00;;;20.20;99.90;;;20.66;73.40;95128.91;5018807;28;20518;-68
2023/09/21 05:59:22;;;;;;;16.10;10.80;;;20.20;99.90;;;20.70;73.27;95127.50;5020162;28;20833;-68
2023/09/21 06:01:49;;;;;;;23.43;12.83;;;20.20;99.90;;;20.74;72.95;95136.78;5015023;28;20862;-61
2023/09/21 06:04:17;;;;;;;29.80;12.13;;;20.30;99.90;;;20.77;72.89;95140.91;5019770;28;20568;-62
2023/09/21 06:06:45;;;;;;;41.77;11.90;;;20.30;99.90;;;20.79;72.90;95136.19;5019832;28;20463;-66
2023/09/21 06:09:18;;;;;;;29.07;12.13;;;20.40;99.90;;;20.82;72.90;95142.97;5015478;28;20496;-68
2023/09/21 06:11:45;;;;;;;29.67;12.30;;;20.40;99.90;;;20.86;73.23;95145.06;5017470;28;20449;-68
2023/09/21 06:14:15;;;;;;;21.57;11.73;;;20.40;99.90;;;20.91;72.77;95145.31;5018376;28;20893;-67
2023/09/21 06:16:42;;;;;;;26.20;12.37;;;20.50;99.90;;;20.97;72.72;95145.56;5018185;28;20462;-60
2023/09/21 06:19:11;;;;;;;17.03;10.67;;;20.50;99.90;;;21.01;72.60;95150.31;5013527;28;20559;-68
2023/09/21 06:21:39;;;;;;;23.13;12.03;;;20.60;99.90;;;21.04;72.55;95141.06;5017385;28;21071;-67
2023/09/21 06:24:07;;;;;;;17.30;11.80;;;20.60;99.90;;;21.11;72.18;95139.22;5020226;28;20472;-67
2023/09/21 06:26:35;;;;;;;18.73;11.57;;;20.60;99.90;;;21.20;72.05;95137.22;5019070;28;20452;-59
2023/09/21 06:29:02;;;;;;;18.10;12.03;;;20.80;99.90;;;21.29;71.81;95133.34;5017838;28;20559;-60
2023/09/21 06:31:32;;;;;;;19.70;10.37;;;20.80;99.90;;;21.35;71.21;95127.19;5015705;28;20666;-67
2023/09/21 06:33:59;;;;;;;28.60;11.60;;;20.90;99.90;;;21.42;70.77;95124.53;5017633;28;20473;-58
2023/09/21 06:36:27;;;;;;;22.00;10.87;;;21.00;99.90;;;21.46;70.51;95123.94;5020059;28;20461;-59
2023/09/21 06:38:55;;;;;;;14.60;10.33;;;21.00;99.90;;;21.52;70.01;95129.53;5021683;28;20480;-60
2023/09/21 06:41:22;;;;;;;19.13;11.70;;;21.10;99.90;;;21.54;69.82;95127.50;5015939;28;20462;-59
2023/09/21 06:43:50;;;;;;;23.17;11.97;;;21.10;99.90;;;21.51;69.49;95136.75;5014952;28;20561;-67
2023/09/21 06:46:18;;;;;;;26.53;12.33;;;21.10;99.90;;;21.52;69.95;95133.06;5011335;28;20520;-67
2023/09/21 06:48:48;;;;;;;29.80;11.30;;;21.10;99.90;;;21.55;69.98;95137.16;5021350;28;21088;-60
2023/09/21 06:51:15;;;;;;;21.53;11.67;;;21.10;99.90;;;21.57;69.80;95132.44;5017450;28;20461;-67
2023/09/21 06:53:43;;;;;;;19.07;11.40;;;21.10;99.90;;;21.61;69.90;95131.00;5018598;28;20524;-61
2023/09/21 06:56:11;;;;;;;20.70;11.60;;;21.10;99.90;;;21.64;69.42;95133.28;5018304;28;20469;-69
2023/09/21 06:58:39;;;;;;;30.07;12.17;;;21.20;99.90;;;21.70;69.70;95135.13;5018699;28;20456;-60
2023/09/21 07:01:06;;;;;;;22.63;11.77;;;21.20;99.90;;;21.80;69.65;95130.22;5018305;28;20457;-67
2023/09/21 07:03:33;;;;;;;21.67;12.10;;;21.40;99.90;;;22.05;69.58;95136.88;5016229;28;20445;-67
2023/09/21 07:06:02;;;;;;;31.37;11.77;;;21.50;99.90;;;22.39;68.44;95133.19;5015858;28;20482;-59
2023/09/21 07:08:29;;;;;;;25.30;12.37;;;21.80;99.90;;;22.69;67.28;95128.19;5017889;28;20580;-66
2023/09/21 07:10:57;;;;;;;29.77;13.07;;;22.10;99.90;;;23.17;67.03;95128.94;5016669;28;20822;-60
2023/09/21 07:13:24;;;;;;;27.13;12.30;;;22.60;99.90;;;23.72;66.28;95141.88;5022890;28;20452;-59
2023/09/21 07:15:52;;;;;;;26.67;12.53;;;23.00;99.90;;;24.24;64.16;95131.03;5020856;28;20457;-64
2023/09/21 07:18:20;;;;;;;17.60;10.63;;;23.50;99.90;;;24.67;63.81;95128.41;5013704;28;20518;-65
2023/09/21 07:20:47;;;;;;;36.23;11.83;;;24.00;99.90;;;25.04;62.39;95133.00;5018042;28;20463;-65
2023/09/21 07:23:16;;;;;;;25.90;11.30;;;24.40;99.90;;;25.39;61.01;95135.09;5021343;28;20473;-66
2023/09/21 07:25:43;;;;;;;28.57;10.40;;;24.70;99.90;;;25.59;60.26;95140.25;5018851;28;21079;-65
2023/09/21 07:28:11;;;;;;;25.17;11.07;;;24.90;99.90;;;25.63;59.75;95136.06;5021675;28;20491;-65
2023/09/21 07:30:38;;;;;;;21.30;10.77;;;25.10;99.90;;;25.67;59.53;95139.09;5019691;28;20862;-58
2023/09/21 07:33:06;;;;;;;23.03;12.27;;;25.10;99.90;;;25.69;58.74;95145.94;5018402;28;20451;-60
2023/09/21 07:35:34;;;;;;;27.93;10.93;;;25.20;99.90;;;25.64;58.54;95142.25;5016825;28;20477;-59
2023/09/21 07:38:01;;;;;;;25.53;11.60;;;25.10;99.80;;;25.57;57.98;95147.75;5018798;28;20965;-58
2023/09/21 07:40:31;;;;;;;40.40;10.90;;;25.10;99.50;;;25.43;57.83;95144.38;5020820;28;20867;-58
2023/09/21 07:42:58;;;;;;;21.30;10.57;;;25.00;99.00;;;25.29;57.92;95153.69;5019794;28;20510;-65
2023/09/21 07:45:25;;;;;;;24.90;10.53;;;24.90;99.00;;;25.16;57.88;95144.69;5020802;28;20476;-65
2023/09/21 07:47:54;;;;;;;31.47;12.50;;;24.80;98.80;;;25.06;57.79;95150.56;5019916;28;20448;-64
2023/09/21 07:50:23;;;;;;;28.10;11.80;;;24.60;98.80;;;24.91;57.78;95141.22;5021012;28;20473;-65
2023/09/21 07:52:53;;;;;;;25.90;11.00;;;24.50;98.70;;;24.75;58.33;95143.44;5008308;28;20875;-60
2023/09/21 07:55:20;;;;;;;19.53;9.90;;;24.40;98.70;;;24.64;58.51;95136.91;5010728;28;20545;-66
2023/09/21 07:57:50;;;;;;;20.57;11.00;;;24.30;98.70;;;24.58;58.21;95135.13;5022234;28;20483;-58
2023/09/21 08:00:19;;;;;;;20.77;8.63;;;24.10;98.60;;;24.53;57.89;95138.44;5014406;28;20504;-59
2023/09/21 08:02:47;;;;;;;22.67;9.73;;;24.10;98.90;;;24.45;57.71;95151.34;5014300;28;20885;-61
2023/09/21 08:05:15;;;;;;;19.70;10.10;;;24.00;98.50;;;24.34;58.46;95134.06;5018263;28;20473;-59
2023/09/21 08:07:42;;;;;;;22.93;9.10;;;23.90;98.50;;;24.26;58.18;95134.31;5015743;28;20468;-66
2023/09/21 08:10:11;;;;;;;23.13;8.97;;;23.80;98.40;;;24.18;57.93;95130.03;5016788;28;20477;-65
2023/09/21 08:12:41;;;;;;;27.00;11.27;;;23.70;98.40;;;24.09;58.57;95126.81;5014853;28;20454;-65
2023/09/21 08:15:11;;;;;;;34.43;10.20;;;23.70;98.60;;;24.03;57.90;95126.84;5014286;28;20523;-65
2023/09/21 08:17:38;;;;;;;22.30;8.70;;;23.60;98.30;;;23.95;57.95;95128.75;5015375;28;20543;-65
2023/09/21 08:20:09;;;;;;;26.90;10.60;;;23.50;98.30;;;23.86;58.30;95127.38;5016714;28;21017;-59
2023/09/21 08:22:37;;;;;;;16.10;9.20;;;23.50;98.30;;;23.85;57.93;95141.03;5020205;28;20475;-65
2023/09/21 08:25:08;;;;;;;22.77;9.10;;;23.40;98.30;;;23.83;58.05;95146.59;5017791;28;21053;-61
2023/09/21 08:27:35;;;;;;;18.03;8.47;;;23.40;98.60;;;23.83;58.40;95141.22;5020743;28;20535;-66
2023/09/21 08:30:03;;;;;;;16.17;9.80;;;23.40;98.80;;;23.85;58.03;95141.03;5017894;28;20497;-64
2023/09/21 08:32:32;;;;;;;17.87;9.33;;;23.40;98.80;;;23.87;58.66;95149.69;5012292;28;20464;-64
2023/09/21 08:35:00;;;;;;;19.40;8.63;;;23.40;98.80;;;23.86;58.55;95138.13;5013184;28;20503;-60
2023/09/21 08:37:28;;;;;;;20.07;9.00;;;23.40;98.60;;;23.87;57.99;95133.56;5009799;28;20472;-66
2023/09/21 08:39:56;;;;;;;17.90;7.93;;;23.40;98.60;;;23.84;58.40;95140.19;5015817;28;20563;-64
2023/09/21 08:42:23;;;;;;;21.80;8.57;;;23.40;98.50;;;23.78;57.46;95141.00;5015356;28;20466;-64
2023/09/21 08:44:51;;;;;;;15.70;8.00;;;23.30;98.20;;;23.73;57.57;95147.03;5012920;28;20490;-65
2023/09/21 08:47:19;;;;;;;23.53;9.67;;;23.30;98.20;;;23.68;57.55;95146.06;5020284;28;20449;-60
2023/09/21 08:49:47;;;;;;;18.77;8.60;;;23.20;98.10;;;23.63;57.40;95144.00;5018423;28;20488;-59
2023/09/21 08:52:15;;;;;;;15.90;8.17;;;23.20;98.10;;;23.61;58.20;95136.16;5015634;28;20456;-64
2023/09/21 08:54:42;;;;;;;20.80;7.50;;;23.20;98.10;;;23.59;57.55;95146.31;5017249;28;20473;-58
2023/09/21 08:57:11;;;;;;;24.27;7.67;;;23.10;98.10;;;23.57;57.92;95140.31;5013324;28;20511;-65
2023/09/21 08:59:41;;;;;;;15.53;6.50;;;23.10;98.10;;;23.58;57.65;95149.22;5018667;28;20468;-65
2023/09/21 09:02:10;;;;;;;8.67;7.47;;;23.10;98.20;;;23.58;58.23;95141.97;5015508;28;20445;-59
2023/09/21 09:04:37;;;;;;;6.03;5.53;;;23.10;98.20;;;23.57;58.26;95143.00;5012640;28;20487;-59
2023/09/21 09:07:06;;;;;;;10.97;7.00;;;23.10;98.20;;;23.60;57.93;95139.06;5018173;28;20452;-60
2023/09/21 09:09:33;;;;;;;13.40;7.00;;;23.10;98.40;;;23.63;58.53;95135.94;5011935;28;20500;-65
2023/09/21 09:12:01;;;;;;;18.70;7.20;;;23.10;98.30;;;23.63;57.53;95136.75;5016290;28;20445;-59
2023/09/21 09:14:28;;;;;;;10.03;6.83;;;23.20;98.10;;;23.65;57.89;95131.19;5008993;28;20536;-60
2023/09/21 09:16:56;;;;;;;21.93;8.13;;;23.20;97.90;;;23.66;57.91;95134.72;5016739;28;20451;-66
2023/09/21 09:19:24;;;;;;;18.83;7.00;;;23.20;97.70;;;23.67;57.11;95125.59;5018441;28;20961;-64
2023/09/21 09:21:52;;;;;;;24.23;7.83;;;23.20;97.80;;;23.68;56.82;95129.94;5019107;28;20484;-66
2023/09/21 09:24:22;;;;;;;11.70;7.20;;;23.20;97.60;;;23.74;57.30;95123.69;5018239;28;20467;-60
2023/09/21 09:26:49;;;;;;;8.40;6.20;;;23.30;97.90;;;23.78;57.01;95127.59;5018283;28;20445;-63
2023/09/21 09:29:17;;;;;;;14.83;7.47;;;23.30;97.80;;;23.80;57.24;95130.91;5018797;28;21035;-65
2023/09/21 09:31:45;;;;;;;14.30;6.50;;;23.30;97.80;;;23.85;57.45;95130.28;5019336;28;20473;-65
2023/09/21 09:34:17;;;;;;;10.77;7.03;;;23.40;98.20;;;23.89;57.33;95126.09;5013428;28;20481;-60
2023/09/21 09:36:46;;;;;;;12.47;7.17;;;23.40;98.10;;;23.91;57.66;95130.22;5019819;28;20529;-61
2023/09/21 09:39:15;;;;;;;11.30;6.87;;;23.40;98.00;;;23.92;57.30;95125.66;5016734;28;20548;-66
2023/09/21 09:41:43;;;;;;;11.50;7.40;;;23.40;97.90;;;23.93;57.73;95113.88;5014546;28;20492;-64
2023/09/21 09:44:10;;;;;;;20.77;7.03;;;23.50;98.10;;;23.95;57.92;95119.88;5016076;28;20480;-59
2023/09/21 09:46:41;;;;;;;14.63;7.53;;;23.50;98.20;;;23.95;57.56;95115.34;5018662;28;20963;-61
2023/09/21 09:49:08;;;;;;;13.47;6.70;;;23.50;98.30;;;24.01;57.76;95123.56;5018008;28;20578;-63
2023/09/21 09:51:40;;;;;;;14.60;6.10;;;23.50;98.30;;;24.06;58.33;95112.97;5015632;28;20518;-65
2023/09/21 09:54:10;;;;;;;12.80;7.73;;;23.60;98.30;;;24.12;57.98;95117.47;5013147;28;20469;-64
2023/09/21 09:56:41;;;;;;;17.00;8.27;;;23.70;98.40;;;24.18;57.19;95116.59;5019594;28;20459;-59
2023/09/21 09:59:11;;;;;;;15.10;5.50;;;23.70;98.00;;;24.25;56.98;95109.31;5015772;28;20559;-65
2023/09/21 10:01:39;;;;;;;20.77;7.30;;;23.70;97.90;;;24.30;56.75;95117.53;5020456;28;20450;-64
2023/09/21 10:04:07;;;;;;;13.63;7.07;;;23.80;97.60;;;24.35;57.50;95122.25;5023429;28;20499;-64
2023/09/21 10:06:35;;;;;;;14.50;6.60;;;23.80;97.70;;;24.42;57.02;95112.28;5020535;28;20934;-59
2023/09/21 10:09:09;;;;;;;14.13;6.60;;;23.90;97.60;;;24.51;56.53;95108.25;5015722;28;21031;-59
2023/09/21 10:11:38;;;;;;;18.43;7.00;;;24.00;97.60;;;24.63;56.68;95121.00;5020371;28;20997;-59
2023/09/21 10:14:05;;;;;;;12.60;6.40;;;24.10;97.40;;;24.77;56.08;95121.69;5012735;28;20481;-60